Time;durP1;ratioP1;P1;durP2;ratioP2;P2;SDS_P1;SDS_P2;PMS_P1;PMS_P2;Temp;Humidity;BMP_temperature;BMP_pressure;BME280_temperature;BME280_humidity;BME280_pressure;Samples;Min_cycle;Max_cycle;Signal;HPM_P1;HPM_P2
2022/08/14 00:01:38;;;;;;;4.10;3.70;;;25.40;59.20;;;;;;4998195;28;20050;-89
2022/08/14 00:04:07;;;;;;;4.10;3.70;;;25.40;59.40;;;;;;4964789;28;20519;-89
2022/08/14 00:06:35;;;;;;;4.28;3.88;;;25.40;59.50;;;;;;4980641;28;20442;-89
2022/08/14 00:09:03;;;;;;;4.18;3.78;;;25.40;59.70;;;;;;4964612;28;20019;-88
2022/08/14 00:11:29;;;;;;;4.53;3.80;;;25.30;59.80;;;;;;4980699;28;20490;-90
2022/08/14 00:13:56;;;;;;;4.45;3.70;;;25.30;60.00;;;;;;4981054;28;20022;-87
2022/08/14 00:16:22;;;;;;;4.43;4.03;;;25.30;60.00;;;;;;4980761;28;20467;-89
2022/08/14 00:18:48;;;;;;;4.65;3.83;;;25.30;60.10;;;;;;4980960;28;20029;-88
2022/08/14 00:21:14;;;;;;;6.20;4.32;;;25.30;60.10;;;;;;4980233;28;20022;-91
2022/08/14 00:23:40;;;;;;;4.25;3.90;;;25.30;60.10;;;;;;4980283;28;20011;-88
2022/08/14 00:26:05;;;;;;;4.30;3.90;;;25.30;60.20;;;;;;4974364;28;20022;-89
2022/08/14 00:28:37;;;;;;;5.35;4.10;;;25.30;60.50;;;;;;4996691;28;20010;-88
2022/08/14 00:31:14;;;;;;;7.03;4.72;;;25.20;60.50;;;;;;4980636;28;20482;-89
2022/08/14 00:33:40;;;;;;;5.18;4.13;;;25.20;60.90;;;;;;4965024;28;20396;-90
2022/08/14 00:36:06;;;;;;;4.63;4.15;;;25.10;60.90;;;;;;4980212;28;20042;-90
2022/08/14 00:38:40;;;;;;;5.13;4.47;;;25.10;61.10;;;;;;4964393;28;20023;-88
2022/08/14 00:41:07;;;;;;;6.18;4.78;;;25.10;61.20;;;;;;4979975;28;20046;-89
2022/08/14 00:43:37;;;;;;;5.07;4.57;;;25.00;62.10;;;;;;4980015;28;20029;-89
2022/08/14 00:46:12;;;;;;;6.18;4.28;;;24.90;61.80;;;;;;4980004;28;20018;-89
2022/08/14 00:48:42;;;;;;;5.85;4.65;;;24.90;62.00;;;;;;4979805;28;20026;-87
2022/08/14 00:51:14;;;;;;;6.88;4.57;;;24.80;61.90;;;;;;4979974;28;20030;-89
2022/08/14 00:53:43;;;;;;;4.65;4.18;;;24.80;62.00;;;;;;4979530;28;20022;-88
2022/08/14 00:56:16;;;;;;;5.57;4.32;;;24.80;62.10;;;;;;4978739;28;20026;-89
2022/08/14 00:58:45;;;;;;;5.15;4.63;;;24.80;62.30;;;;;;4979582;28;20130;-89
2022/08/14 01:01:13;;;;;;;5.80;4.65;;;24.80;62.40;;;;;;4979479;28;20027;-89
2022/08/14 01:03:47;;;;;;;5.20;4.70;;;24.70;62.50;;;;;;4979699;28;20474;-89
2022/08/14 01:06:33;;;;;;;5.28;4.38;;;24.80;62.60;;;;;;4980741;28;20031;-88
2022/08/14 01:09:07;;;;;;;6.20;4.80;;;24.70;62.70;;;;;;4979930;28;20047;-89
2022/08/14 01:11:56;;;;;;;5.45;4.85;;;24.70;62.80;;;;;;4980015;28;20029;-90
2022/08/14 01:14:27;;;;;;;6.60;4.80;;;24.70;62.90;;;;;;4980645;28;20046;-88
2022/08/14 01:16:55;;;;;;;5.45;4.93;;;24.60;63.30;;;;;;4981865;28;20452;-88
2022/08/14 01:22:22;;;;;;;6.80;4.75;;;24.50;63.40;;;;;;5000762;28;20041;-90
2022/08/14 01:24:50;;;;;;;5.10;4.60;;;24.50;64.10;;;;;;4997601;28;20049;-89
2022/08/14 01:27:20;;;;;;;5.93;5.32;;;24.50;63.50;;;;;;4984918;28;20053;-89
2022/08/14 01:29:47;;;;;;;6.18;4.88;;;24.40;63.90;;;;;;5001541;28;20482;-89
2022/08/14 01:32:19;;;;;;;5.68;5.18;;;24.40;64.10;;;;;;5001119;28;20014;-89
2022/08/14 01:34:54;;;;;;;6.20;5.03;;;24.40;64.20;;;;;;4986923;28;20022;-89
2022/08/14 01:37:29;;;;;;;6.82;4.82;;;24.30;64.30;;;;;;4966114;28;20036;-90
2022/08/14 01:39:57;;;;;;;6.03;4.93;;;24.30;64.40;;;;;;4981465;28;20022;-87
2022/08/14 01:42:28;;;;;;;5.60;5.03;;;24.30;64.60;;;;;;4965621;28;20045;-89
2022/08/14 01:44:59;;;;;;;5.30;4.80;;;24.20;64.80;;;;;;4996549;28;20025;-89
2022/08/14 01:47:31;;;;;;;;;;;24.10;65.00;;;;;;5002772;28;20061;-87
2022/08/14 01:50:02;;;;;;;5.65;5.05;;;24.00;65.10;;;;;;5003240;28;19906;-89
2022/08/14 01:52:35;;;;;;;6.53;5.43;;;24.00;65.60;;;;;;5003321;28;20017;-89
2022/08/14 01:55:05;;;;;;;6.35;5.18;;;23.80;65.90;;;;;;5002688;28;20030;-88
2022/08/14 01:57:38;;;;;;;6.65;5.25;;;23.90;65.90;;;;;;4991387;28;20042;-90
2022/08/14 02:00:14;;;;;;;6.10;5.50;;;23.90;65.90;;;;;;4980459;28;20022;-89
2022/08/14 02:02:59;;;;;;;5.65;5.05;;;23.80;66.10;;;;;;4980913;28;20065;-90
2022/08/14 02:05:39;;;;;;;6.32;5.75;;;23.80;66.40;;;;;;4980369;28;20558;-90
2022/08/14 02:08:16;;;;;;;6.20;5.60;;;23.80;66.30;;;;;;4980122;28;20034;-89
2022/08/14 02:11:15;;;;;;;6.03;5.40;;;23.80;66.40;;;;;;4979380;28;20022;-91
2022/08/14 02:13:42;;;;;;;6.05;5.55;;;23.80;66.30;;;;;;4996730;28;20423;-90
2022/08/14 02:16:11;;;;;;;6.35;5.70;;;23.80;66.60;;;;;;4963241;28;20018;-90
2022/08/14 02:18:40;;;;;;;6.18;5.57;;;23.70;66.80;;;;;;4979288;28;20036;-89
2022/08/14 02:21:17;;;;;;;6.55;5.90;;;23.70;67.00;;;;;;4979245;28;20042;-89
2022/08/14 02:23:46;;;;;;;9.00;6.35;;;23.70;67.20;;;;;;4979894;28;20019;-89
2022/08/14 02:26:35;;;;;;;7.63;6.57;;;23.60;67.50;;;;;;4979503;28;20371;-88
2022/08/14 02:29:24;;;;;;;6.65;6.05;;;23.60;67.50;;;;;;4979156;28;20026;-88
2022/08/14 02:31:56;;;;;;;6.57;5.70;;;23.60;67.30;;;;;;4978809;28;20045;-89
2022/08/14 02:34:35;;;;;;;7.63;5.90;;;23.70;67.50;;;;;;4979504;28;20022;-88
2022/08/14 02:37:14;;;;;;;6.43;5.75;;;23.70;67.50;;;;;;4979438;28;20456;-91
2022/08/14 02:39:44;;;;;;;6.50;5.78;;;23.70;67.50;;;;;;4978975;28;20018;-89
2022/08/14 02:42:20;;;;;;;8.02;5.88;;;23.80;67.60;;;;;;4979008;28;20423;-89
2022/08/14 02:44:51;;;;;;;7.22;6.28;;;23.70;67.60;;;;;;4962989;28;20104;-89
2022/08/14 02:47:20;;;;;;;;;;;23.80;67.70;;;;;;4963704;28;20049;-89
2022/08/14 02:49:46;;;;;;;7.15;6.03;;;23.80;67.60;;;;;;4978697;28;20270;-90
2022/08/14 02:52:16;;;;;;;7.10;6.40;;;23.70;67.70;;;;;;4978671;28;20042;-89
2022/08/14 02:54:52;;;;;;;7.75;6.50;;;23.70;67.90;;;;;;4978599;28;20471;-90
2022/08/14 02:57:20;;;;;;;7.35;6.18;;;23.80;68.10;;;;;;4978816;28;20384;-89
2022/08/14 02:59:53;;;;;;;6.95;6.30;;;23.80;68.00;;;;;;4978734;28;20025;-89
2022/08/14 03:02:23;;;;;;;6.78;6.18;;;23.80;67.90;;;;;;4978313;28;20018;-88
2022/08/14 03:04:55;;;;;;;6.68;5.88;;;23.80;68.00;;;;;;4978724;28;20019;-89
2022/08/14 03:07:36;;;;;;;7.85;6.57;;;23.80;68.20;;;;;;4979247;28;20041;-91
2022/08/14 03:10:05;;;;;;;7.43;6.57;;;23.80;68.20;;;;;;4963725;28;20046;-89
2022/08/14 03:12:37;;;;;;;6.97;6.38;;;23.80;68.20;;;;;;4962942;28;20504;-89
2022/08/14 03:15:12;;;;;;;6.85;6.07;;;23.70;68.40;;;;;;4979297;28;20050;-89
2022/08/14 03:17:41;;;;;;;9.70;7.00;;;23.70;68.50;;;;;;4978921;28;20343;-90
2022/08/14 03:20:10;;;;;;;6.32;5.72;;;23.70;68.70;;;;;;4981395;28;20018;-90
2022/08/14 03:22:55;;;;;;;7.13;6.47;;;23.60;68.90;;;;;;4982778;28;20025;-90
2022/08/14 03:25:21;;;;;;;8.73;6.75;;;23.60;69.30;;;;;;4982900;28;20021;-89
2022/08/14 03:27:47;;;;;;;6.75;6.15;;;23.50;69.50;;;;;;4983057;28;20386;-89
2022/08/14 03:30:13;;;;;;;7.63;6.65;;;23.50;69.60;;;;;;4982881;28;20094;-89
2022/08/14 03:32:43;;;;;;;7.32;6.63;;;23.50;69.70;;;;;;4982264;28;20026;-90
2022/08/14 03:35:12;;;;;;;7.65;6.55;;;23.50;69.80;;;;;;4983876;28;20033;-89
2022/08/14 03:37:46;;;;;;;7.75;6.97;;;23.40;69.90;;;;;;4982698;28;20046;-90
2022/08/14 03:40:31;;;;;;;;;;;;;;;;;;;;;
2022/08/14 03:43:09;;;;;;;;;;;;;;;;;;;;;
2022/08/14 03:45:39;;;;;;;7.97;6.95;;;23.30;70.30;;;;;;4999321;28;20023;-88
2022/08/14 03:48:18;;;;;;;8.20;7.40;;;23.20;70.50;;;;;;4990306;28;20069;-89
2022/08/14 03:50:55;;;;;;;8.35;7.28;;;23.20;70.60;;;;;;4982563;28;20018;-91
2022/08/14 03:53:21;;;;;;;7.63;6.93;;;23.20;70.60;;;;;;4988706;28;20010;-90
2022/08/14 03:55:55;;;;;;;7.72;7.03;;;23.10;70.70;;;;;;5004101;28;20045;-90
2022/08/14 03:58:28;;;;;;;7.90;7.20;;;23.10;70.60;;;;;;5005068;28;20038;-89
2022/08/14 04:00:57;;;;;;;7.68;6.97;;;23.10;70.80;;;;;;5004642;28;20095;-90
2022/08/14 04:03:25;;;;;;;7.63;6.80;;;23.10;71.00;;;;;;5005045;28;20094;-89
2022/08/14 04:05:54;;;;;;;7.85;7.15;;;23.10;71.00;;;;;;4978682;28;20018;-89
2022/08/14 04:08:20;;;;;;;8.38;7.57;;;23.10;71.20;;;;;;4982678;28;20022;-89
2022/08/14 04:10:46;;;;;;;7.80;7.00;;;23.00;71.30;;;;;;4982178;28;20033;-90
2022/08/14 04:13:20;;;;;;;8.40;7.50;;;23.00;71.30;;;;;;4981951;28;20026;-89
2022/08/14 04:15:49;;;;;;;7.68;6.97;;;23.00;71.60;;;;;;4981892;28;20084;-89
2022/08/14 04:18:15;;;;;;;8.25;7.45;;;23.00;71.60;;;;;;4981337;28;20486;-88
2022/08/14 04:20:41;;;;;;;8.43;7.63;;;23.00;71.60;;;;;;4965078;28;20034;-89
2022/08/14 04:23:09;;;;;;;8.77;7.68;;;23.00;71.60;;;;;;4981450;28;20105;-90
2022/08/14 04:25:36;;;;;;;8.00;7.22;;;22.90;71.60;;;;;;4981247;28;20065;-90
2022/08/14 04:28:10;;;;;;;8.90;8.00;;;22.90;71.60;;;;;;4981665;28;20020;-89
2022/08/14 04:30:38;;;;;;;8.57;7.78;;;22.90;71.60;;;;;;4981914;28;20030;-90
2022/08/14 04:33:07;;;;;;;8.65;7.75;;;22.90;71.70;;;;;;4981424;28;20053;-89
2022/08/14 04:35:42;;;;;;;8.47;7.53;;;22.90;71.80;;;;;;4981517;28;20022;-91
2022/08/14 04:43:39;;;;;;;8.68;7.78;;;22.80;72.20;;;;;;4997986;28;20093;-90
2022/08/14 04:46:17;;;;;;;8.63;7.82;;;22.70;72.40;;;;;;4981087;28;20048;-89
2022/08/14 04:48:45;;;;;;;8.32;7.50;;;22.70;72.70;;;;;;4965697;28;20022;-90
2022/08/14 04:51:13;;;;;;;11.85;8.43;;;22.60;72.70;;;;;;4981458;28;20316;-90
2022/08/14 04:53:52;;;;;;;9.07;7.38;;;22.70;72.80;;;;;;4981436;28;20026;-90
2022/08/14 04:56:26;;;;;;;8.57;7.78;;;22.70;72.60;;;;;;4981154;28;20171;-89
2022/08/14 04:58:59;;;;;;;8.18;7.38;;;22.80;72.30;;;;;;4997812;28;20087;-90
2022/08/14 05:01:30;;;;;;;7.88;7.18;;;22.80;72.30;;;;;;4981096;28;20030;-90
2022/08/14 05:03:56;;;;;;;8.63;7.90;;;22.80;72.30;;;;;;4980348;28;20011;-90
2022/08/14 05:06:22;;;;;;;8.63;7.72;;;22.80;72.20;;;;;;4980447;28;20105;-88
2022/08/14 05:08:52;;;;;;;9.18;8.27;;;22.90;72.20;;;;;;4981668;28;20026;-88
2022/08/14 05:11:20;;;;;;;9.27;8.30;;;22.90;72.10;;;;;;4980787;28;20029;-88
2022/08/14 05:13:48;;;;;;;9.20;7.80;;;22.90;72.40;;;;;;4980478;28;20088;-89
2022/08/14 05:16:14;;;;;;;13.15;9.10;;;22.80;72.40;;;;;;4980073;28;20024;-88
2022/08/14 05:18:40;;;;;;;9.30;8.40;;;22.70;72.70;;;;;;4980457;28;20125;-89
2022/08/14 05:21:28;;;;;;;9.75;8.85;;;22.70;72.90;;;;;;4980273;28;20025;-89
2022/08/14 05:23:57;;;;;;;9.35;8.43;;;22.70;73.00;;;;;;4964467;28;20506;-88
2022/08/14 05:26:33;;;;;;;11.32;8.73;;;22.70;73.00;;;;;;4980733;28;20348;-88
2022/08/14 05:29:01;;;;;;;10.05;8.40;;;22.70;73.10;;;;;;4997953;28;20474;-88
2022/08/14 05:31:29;;;;;;;9.60;8.70;;;22.70;73.10;;;;;;4980248;28;20110;-90
2022/08/14 05:34:01;;;;;;;8.80;7.80;;;22.70;73.30;;;;;;4979879;28;20045;-88
2022/08/14 05:36:29;;;;;;;9.25;8.30;;;22.60;73.40;;;;;;4980159;28;20029;-88
2022/08/14 05:39:06;;;;;;;8.77;7.97;;;22.60;73.60;;;;;;4965582;28;20064;-89
2022/08/14 05:41:41;;;;;;;8.90;8.00;;;22.60;73.80;;;;;;4980569;28;20027;-89
2022/08/14 05:44:09;;;;;;;9.10;7.75;;;22.70;73.80;;;;;;4963889;28;20019;-89
2022/08/14 05:46:36;;;;;;;9.13;8.23;;;22.70;73.60;;;;;;4980083;28;20049;-89
2022/08/14 05:49:04;;;;;;;9.32;8.38;;;22.70;73.60;;;;;;4980520;28;20455;-88
2022/08/14 05:51:32;;;;;;;8.60;7.75;;;22.80;73.60;;;;;;4964605;28;20026;-89
2022/08/14 05:54:00;;;;;;;8.25;7.53;;;22.80;73.60;;;;;;4980029;28;20019;-89
2022/08/14 05:56:31;;;;;;;8.93;8.02;;;22.80;73.40;;;;;;4979478;28;20104;-89
2022/08/14 05:59:14;;;;;;;9.05;7.60;;;22.90;73.40;;;;;;4980059;28;20047;-90
2022/08/14 06:01:47;;;;;;;8.18;7.38;;;22.90;73.30;;;;;;4992238;28;20026;-89
2022/08/14 06:04:18;;;;;;;8.27;7.53;;;22.90;73.30;;;;;;5002685;28;20057;-90
2022/08/14 06:06:45;;;;;;;9.18;8.27;;;22.90;73.20;;;;;;5002529;28;20018;-88
2022/08/14 06:09:25;;;;;;;8.43;7.72;;;23.00;73.10;;;;;;5002789;28;20042;-89
2022/08/14 06:11:58;;;;;;;9.50;8.18;;;23.00;73.10;;;;;;4987220;28;20041;-89
2022/08/14 06:14:27;;;;;;;9.02;8.13;;;23.00;73.00;;;;;;4978125;28;20088;-89
2022/08/14 06:16:55;;;;;;;9.70;8.70;;;23.00;73.20;;;;;;4979566;28;20023;-89
2022/08/14 06:19:24;;;;;;;9.00;8.20;;;23.00;73.40;;;;;;4963281;28;20026;-89
2022/08/14 06:21:50;;;;;;;8.52;7.72;;;23.00;73.30;;;;;;4978989;28;20010;-89
2022/08/14 06:24:25;;;;;;;9.25;8.35;;;23.00;73.30;;;;;;4978936;28;20014;-88
2022/08/14 06:26:51;;;;;;;9.27;8.43;;;23.00;73.20;;;;;;4978998;28;20361;-90
2022/08/14 06:29:24;;;;;;;8.05;7.25;;;23.10;73.20;;;;;;4979171;28;20022;-89
2022/08/14 06:31:56;;;;;;;8.63;7.88;;;23.10;73.10;;;;;;4963612;28;20026;-89
2022/08/14 06:34:26;;;;;;;9.63;8.82;;;23.10;73.10;;;;;;4978904;28;20014;-88
2022/08/14 06:36:55;;;;;;;9.45;8.32;;;23.10;73.30;;;;;;4979212;28;20061;-89
2022/08/14 06:42:49;;;;;;;9.27;8.30;;;23.20;73.60;;;;;;4898436;29;20025;-89
2022/08/14 06:45:19;;;;;;;8.48;7.72;;;23.20;73.60;;;;;;4979075;28;20029;-89
2022/08/14 06:47:56;;;;;;;8.27;7.47;;;23.20;73.70;;;;;;4979001;28;20375;-90
2022/08/14 06:50:28;;;;;;;8.98;8.18;;;23.30;73.70;;;;;;4979223;28;20113;-89
2022/08/14 06:53:06;;;;;;;8.38;7.68;;;23.30;73.70;;;;;;4963200;28;20026;-90
2022/08/14 06:55:41;;;;;;;8.63;7.75;;;23.40;73.50;;;;;;4963939;28;20117;-90
2022/08/14 06:58:13;;;;;;;8.18;7.45;;;23.50;73.10;;;;;;4979294;28;20125;-89
2022/08/14 07:00:39;;;;;;;8.85;7.20;;;23.70;73.00;;;;;;4979050;28;20018;-90
2022/08/14 07:06:01;;;;;;;8.95;8.13;;;23.80;72.60;;;;;;4966150;28;20014;-88
2022/08/14 07:08:29;;;;;;;8.23;7.43;;;23.70;72.70;;;;;;4979233;28;20042;-89
2022/08/14 07:11:13;;;;;;;8.35;7.55;;;23.80;72.70;;;;;;4978687;28;20581;-89
2022/08/14 07:14:05;;;;;;;9.13;7.93;;;23.80;72.50;;;;;;4978104;28;20118;-88
2022/08/14 07:16:36;;;;;;;7.95;7.25;;;24.00;72.50;;;;;;4978660;28;20459;-89
2022/08/14 07:22:06;;;;;;;9.45;8.45;;;24.10;72.20;;;;;;4974290;28;20044;-89
2022/08/14 07:24:31;;;;;;;8.50;7.53;;;24.10;72.20;;;;;;4978799;28;20023;-90
2022/08/14 07:27:02;;;;;;;11.05;8.75;;;24.20;72.20;;;;;;4978119;28;20058;-91
2022/08/14 07:29:31;;;;;;;9.35;8.45;;;24.30;72.20;;;;;;4977780;28;20018;-89
2022/08/14 07:32:26;;;;;;;;;;;;;;;;;;;;;
2022/08/14 07:34:52;;;;;;;8.95;8.05;;;24.40;72.20;;;;;;4979831;28;20022;-89
2022/08/14 07:37:18;;;;;;;8.38;7.65;;;24.40;72.10;;;;;;4977781;28;20050;-87
2022/08/14 07:39:46;;;;;;;8.85;8.05;;;24.40;71.90;;;;;;4994831;28;20022;-89
2022/08/14 07:42:21;;;;;;;7.82;7.13;;;24.50;71.80;;;;;;4977194;28;20050;-88
2022/08/14 07:44:49;;;;;;;9.18;8.32;;;24.60;71.70;;;;;;4977756;28;20025;-88
2022/08/14 07:47:27;;;;;;;8.82;7.97;;;24.70;71.50;;;;;;4977265;28;20023;-88
2022/08/14 07:50:14;;;;;;;9.15;8.25;;;24.80;71.40;;;;;;4978289;28;20478;-91
2022/08/14 07:52:58;;;;;;;8.48;7.78;;;24.80;71.30;;;;;;4977722;28;20023;-88
2022/08/14 07:55:34;;;;;;;8.30;7.60;;;24.90;71.30;;;;;;4977487;28;20118;-89
2022/08/14 07:58:08;;;;;;;7.65;6.90;;;24.90;71.30;;;;;;4976906;28;20058;-89
2022/08/14 08:00:44;;;;;;;;;;;;;;;;;;;;;
2022/08/14 08:03:14;;;;;;;7.35;6.65;;;25.10;71.20;;;;;;4996108;28;20021;-90
2022/08/14 08:05:46;;;;;;;7.68;6.72;;;25.20;71.10;;;;;;4980546;28;20041;-88
2022/08/14 08:08:14;;;;;;;7.85;7.15;;;25.30;70.80;;;;;;4983910;28;20046;-87
2022/08/14 08:10:41;;;;;;;7.20;6.50;;;25.30;70.50;;;;;;4995385;28;20026;-89
2022/08/14 08:13:20;;;;;;;6.82;6.20;;;25.40;70.50;;;;;;4996276;28;20025;-89
2022/08/14 08:16:02;;;;;;;8.90;7.60;;;25.40;70.40;;;;;;5001682;28;20058;-89
2022/08/14 08:21:33;;;;;;;8.43;6.10;;;25.60;70.20;;;;;;5004896;28;20096;-89
2022/08/14 08:24:02;;;;;;;6.57;5.97;;;25.70;70.10;;;;;;4987037;28;20022;-90
2022/08/14 08:26:54;;;;;;;6.65;6.07;;;25.80;69.90;;;;;;4984410;28;20456;-90
2022/08/14 08:32:28;;;;;;;;;;;;;;;;;;;;;
2022/08/14 08:34:57;;;;;;;7.53;6.53;;;26.10;69.10;;;;;;5000128;28;20105;-91
2022/08/14 08:37:23;;;;;;;6.43;5.82;;;26.20;69.00;;;;;;4981626;28;20526;-88
2022/08/14 08:39:51;;;;;;;6.05;5.35;;;26.20;68.70;;;;;;4981785;28;20022;-89
2022/08/14 08:45:22;;;;;;;6.45;5.85;;;26.40;68.40;;;;;;4970675;28;20097;-91
2022/08/14 08:47:59;;;;;;;5.82;5.18;;;26.50;68.50;;;;;;4981587;28;20022;-90
2022/08/14 08:50:51;;;;;;;5.80;5.30;;;26.50;68.30;;;;;;4966949;28;20045;-90
2022/08/14 08:53:47;;;;;;;;;;;;;;;;;;;;;
2022/08/14 08:56:23;;;;;;;;;;;;;;;;;;;;;
2022/08/14 08:59:30;;;;;;;;;;;;;;;;;;;;;
2022/08/14 09:02:15;;;;;;;5.95;5.45;;;26.90;67.50;;;;;;4987604;28;20034;-90
2022/08/14 09:04:46;;;;;;;6.57;5.50;;;27.00;67.40;;;;;;4967326;28;20026;-92
2022/08/14 09:07:38;;;;;;;6.30;5.70;;;27.10;67.20;;;;;;4980857;28;20053;-90
2022/08/14 09:10:35;;;;;;;;;;;;;;;;;;;;;
2022/08/14 09:16:38;;;;;;;6.07;5.47;;;27.20;66.30;;;;;;4918477;28;20107;-91
2022/08/14 09:19:06;;;;;;;6.18;5.57;;;27.30;66.40;;;;;;4919706;29;20024;-91
2022/08/14 09:21:52;;;;;;;;;;;;;;;;;;;;;
2022/08/14 09:24:24;;;;;;;6.20;5.22;;;27.40;66.10;;;;;;4998140;28;20033;-92
2022/08/14 09:27:20;;;;;;;5.78;5.28;;;27.50;65.80;;;;;;4998488;28;20105;-90
2022/08/14 09:29:53;;;;;;;7.75;5.15;;;27.60;65.80;;;;;;4997384;28;20030;-89
2022/08/14 09:32:33;;;;;;;5.55;5.05;;;27.60;65.70;;;;;;4965032;28;20038;-90
2022/08/14 09:35:16;;;;;;;5.47;5.00;;;27.70;65.70;;;;;;4982168;28;20029;-91
2022/08/14 09:37:57;;;;;;;6.75;5.60;;;27.80;65.50;;;;;;4982848;28;20109;-91
2022/08/14 09:40:49;;;;;;;5.50;5.00;;;27.90;65.40;;;;;;4982359;28;20038;-90
2022/08/14 09:43:55;;;;;;;5.80;5.18;;;28.00;65.30;;;;;;4982661;28;20106;-92
2022/08/14 09:46:26;;;;;;;6.47;5.43;;;28.10;65.30;;;;;;4923712;28;20046;-89
2022/08/14 09:49:06;;;;;;;7.32;5.13;;;28.20;65.00;;;;;;4964365;28;20019;-90
2022/08/14 09:51:41;;;;;;;5.22;4.65;;;28.30;64.70;;;;;;4980030;28;20101;-91
2022/08/14 09:54:11;;;;;;;6.07;5.20;;;28.30;64.60;;;;;;4980093;28;20069;-89
2022/08/14 09:57:18;;;;;;;;;;;;;;;;;;;;;
2022/08/14 10:00:17;;;;;;;5.53;5.03;;;28.40;62.50;;;;;;4997045;28;19914;-90
2022/08/14 10:03:12;;;;;;;;;;;;;;;;;;;;;
2022/08/14 10:05:55;;;;;;;5.45;4.80;;;28.40;63.30;;;;;;4996886;28;20018;-91
2022/08/14 10:08:24;;;;;;;5.82;5.32;;;28.50;62.80;;;;;;4964596;28;20109;-91
2022/08/14 10:11:34;;;;;;;5.05;4.65;;;28.50;62.10;;;;;;4980556;28;20065;-91
2022/08/14 10:14:29;;;;;;;5.75;5.20;;;28.60;62.30;;;;;;4980915;28;20034;-91
2022/08/14 10:17:21;;;;;;;5.45;4.88;;;28.60;61.90;;;;;;4980247;28;20022;-90
2022/08/14 10:19:58;;;;;;;;;;;;;;;;;;;;;
2022/08/14 10:22:33;;;;;;;4.93;4.43;;;28.70;61.30;;;;;;4999570;28;20101;-89
2022/08/14 10:25:17;;;;;;;4.90;4.50;;;28.80;61.40;;;;;;4980878;28;20022;-89
2022/08/14 10:28:14;;;;;;;5.13;4.63;;;28.80;61.40;;;;;;4983734;28;20089;-93
2022/08/14 10:30:52;;;;;;;;;;;;;;;;;;;;;
2022/08/14 10:33:49;;;;;;;5.30;4.80;;;29.00;61.20;;;;;;5018988;28;20011;-92
2022/08/14 10:36:41;;;;;;;;;;;;;;;;;;;;;
2022/08/14 10:39:21;;;;;;;4.40;3.95;;;29.10;60.80;;;;;;5015627;28;20041;-92
2022/08/14 10:41:59;;;;;;;4.75;4.35;;;29.10;60.70;;;;;;4998886;28;20049;-93
2022/08/14 10:44:35;;;;;;;4.82;4.43;;;29.20;60.70;;;;;;4991934;28;20058;-90
2022/08/14 10:47:13;;;;;;;5.13;4.63;;;29.30;59.70;;;;;;4995454;28;20018;-88
2022/08/14 10:50:40;;;;;;;5.60;4.65;;;29.30;59.20;;;;;;4980206;28;20029;-88
2022/08/14 10:53:09;;;;;;;5.32;4.93;;;29.40;58.60;;;;;;4937281;29;20358;-89
2022/08/14 10:55:43;;;;;;;4.80;4.32;;;29.40;58.50;;;;;;4921228;29;20034;-89
2022/08/14 10:58:35;;;;;;;;;;;;;;;;;;;;;
2022/08/14 11:01:06;;;;;;;4.40;4.00;;;29.50;58.80;;;;;;4996664;28;20038;-90
2022/08/14 11:03:44;;;;;;;5.22;3.63;;;29.50;58.90;;;;;;4996478;28;20041;-89
2022/08/14 11:06:22;;;;;;;4.20;3.80;;;29.60;59.00;;;;;;4963074;28;20018;-89
2022/08/14 11:08:51;;;;;;;4.55;4.13;;;29.70;58.90;;;;;;4979099;28;20018;-89
2022/08/14 11:11:20;;;;;;;4.20;3.88;;;29.80;59.00;;;;;;4978926;28;20054;-87
2022/08/14 11:13:46;;;;;;;5.67;4.43;;;29.80;58.30;;;;;;4978003;28;20022;-87
2022/08/14 11:16:17;;;;;;;5.60;5.10;;;29.80;58.10;;;;;;4978363;28;20018;-89
2022/08/14 11:18:49;;;;;;;4.82;4.43;;;29.90;57.40;;;;;;4977775;28;20391;-88
2022/08/14 11:21:17;;;;;;;4.68;4.28;;;29.90;57.30;;;;;;4978425;28;20117;-88
2022/08/14 11:23:45;;;;;;;4.78;4.30;;;29.90;57.00;;;;;;4977611;28;20026;-89
2022/08/14 11:26:13;;;;;;;4.80;4.20;;;30.00;56.70;;;;;;4978307;28;20022;-88
2022/08/14 11:28:40;;;;;;;4.03;3.63;;;30.00;57.00;;;;;;4978605;28;20026;-89
2022/08/14 11:31:12;;;;;;;4.60;4.20;;;30.10;57.10;;;;;;4977444;28;20023;-90
2022/08/14 11:33:40;;;;;;;4.22;3.83;;;30.10;56.90;;;;;;4977313;28;20036;-88
2022/08/14 11:36:10;;;;;;;4.40;4.00;;;30.10;56.70;;;;;;4978716;28;20030;-89
2022/08/14 11:38:40;;;;;;;4.50;4.10;;;30.20;56.40;;;;;;4978216;28;20042;-88
2022/08/14 11:41:10;;;;;;;4.72;3.92;;;30.20;56.30;;;;;;4981529;28;20022;-88
2022/08/14 11:43:51;;;;;;;4.10;3.80;;;30.30;56.50;;;;;;4967027;28;20026;-89
2022/08/14 11:46:23;;;;;;;4.60;4.20;;;30.40;56.40;;;;;;4998704;28;20023;-89
2022/08/14 11:48:52;;;;;;;4.20;3.90;;;30.40;56.20;;;;;;4999560;28;20019;-88
2022/08/14 11:51:27;;;;;;;4.50;4.10;;;30.40;56.00;;;;;;4982319;28;20419;-88
2022/08/14 11:54:06;;;;;;;4.80;4.35;;;30.50;56.00;;;;;;4981933;28;20018;-88
2022/08/14 11:56:42;;;;;;;5.47;4.13;;;30.50;55.60;;;;;;4982620;28;20036;-89
2022/08/14 11:59:21;;;;;;;4.55;4.07;;;30.50;55.40;;;;;;4982529;28;20042;-88
2022/08/14 12:01:47;;;;;;;4.68;3.75;;;30.60;55.80;;;;;;4982229;28;20039;-88
2022/08/14 12:04:19;;;;;;;4.78;4.25;;;30.60;56.00;;;;;;4999620;28;20018;-88
2022/08/14 12:06:57;;;;;;;4.43;4.03;;;30.60;56.10;;;;;;4982384;28;20028;-88
2022/08/14 12:09:36;;;;;;;4.28;3.88;;;30.70;55.90;;;;;;4966006;28;20018;-89
2022/08/14 12:12:13;;;;;;;4.15;3.75;;;30.70;55.90;;;;;;4981856;28;20056;-88
2022/08/14 12:14:58;;;;;;;4.72;4.07;;;30.80;55.50;;;;;;4981174;28;20026;-88
2022/08/14 12:17:32;;;;;;;4.28;3.65;;;30.80;55.60;;;;;;4981724;28;20049;-88
2022/08/14 12:20:02;;;;;;;4.10;3.80;;;30.80;55.40;;;;;;4981541;28;20025;-87
2022/08/14 12:22:35;;;;;;;4.07;3.78;;;30.90;55.30;;;;;;4981525;28;20049;-88
2022/08/14 12:25:06;;;;;;;3.90;3.60;;;31.00;54.50;;;;;;4999045;28;20103;-88
2022/08/14 12:27:38;;;;;;;3.78;3.38;;;31.00;54.20;;;;;;4982526;28;20057;-88
2022/08/14 12:30:05;;;;;;;3.92;3.60;;;31.10;54.40;;;;;;4982525;28;20061;-88
2022/08/14 12:32:46;;;;;;;5.35;3.95;;;31.10;54.00;;;;;;4981518;28;20018;-88
2022/08/14 12:35:13;;;;;;;4.18;3.88;;;31.10;54.00;;;;;;4981751;28;20444;-89
2022/08/14 12:37:50;;;;;;;4.20;3.90;;;31.10;54.20;;;;;;4981824;28;20120;-89
2022/08/14 12:40:23;;;;;;;4.20;3.80;;;31.20;54.20;;;;;;4982198;28;20081;-88
2022/08/14 12:42:51;;;;;;;4.10;3.78;;;31.20;53.80;;;;;;4981937;28;20018;-88
2022/08/14 12:45:35;;;;;;;3.83;3.53;;;31.20;54.00;;;;;;4998899;28;20423;-88
2022/08/14 12:48:05;;;;;;;5.93;5.00;;;31.30;54.30;;;;;;4981763;28;20022;-88
2022/08/14 12:50:39;;;;;;;5.13;4.72;;;31.40;54.00;;;;;;4982583;28;20018;-88
2022/08/14 12:53:06;;;;;;;4.28;3.97;;;31.30;53.90;;;;;;5000826;28;20015;-88
2022/08/14 12:55:34;;;;;;;4.80;4.40;;;31.40;54.00;;;;;;5004386;28;20022;-88
2022/08/14 12:58:04;;;;;;;4.05;3.70;;;31.40;53.80;;;;;;4987896;28;20038;-88
2022/08/14 13:00:33;;;;;;;4.20;3.90;;;31.50;53.60;;;;;;5004158;28;20018;-87
2022/08/14 13:03:04;;;;;;;5.03;4.53;;;31.50;53.00;;;;;;4988086;28;20536;-89
2022/08/14 13:05:36;;;;;;;6.82;4.45;;;31.40;52.50;;;;;;5003382;28;20095;-88
2022/08/14 13:08:07;;;;;;;4.43;4.03;;;31.40;52.30;;;;;;4983895;28;20049;-89
2022/08/14 13:10:33;;;;;;;5.22;4.15;;;31.40;52.10;;;;;;4981408;28;20019;-89
2022/08/14 13:13:01;;;;;;;4.50;3.83;;;31.40;52.60;;;;;;4980113;28;20014;-89
2022/08/14 13:15:29;;;;;;;4.57;4.18;;;31.50;52.30;;;;;;4979454;28;20141;-89
2022/08/14 13:18:00;;;;;;;4.78;3.80;;;31.40;51.90;;;;;;4980484;28;20458;-88
2022/08/14 13:20:27;;;;;;;3.95;3.40;;;31.40;51.60;;;;;;4980454;28;20030;-88
2022/08/14 13:22:53;;;;;;;3.70;3.40;;;31.40;51.70;;;;;;4980115;28;20018;-88
2022/08/14 13:25:23;;;;;;;4.18;3.85;;;31.50;51.70;;;;;;4980501;28;20046;-89
2022/08/14 13:27:53;;;;;;;3.72;3.42;;;31.50;51.70;;;;;;4980907;28;20378;-89
2022/08/14 13:30:19;;;;;;;;;;;31.50;51.90;;;;;;4979874;28;20379;-88
2022/08/14 13:32:45;;;;;;;4.40;4.00;;;31.50;52.00;;;;;;4979679;28;19902;-89
2022/08/14 13:35:14;;;;;;;4.20;3.80;;;31.50;52.10;;;;;;4979807;28;20444;-88
2022/08/14 13:37:45;;;;;;;6.63;4.22;;;31.60;51.90;;;;;;4979949;28;20395;-88
2022/08/14 13:40:12;;;;;;;4.32;3.92;;;31.60;51.80;;;;;;4979459;28;20069;-89
2022/08/14 13:42:43;;;;;;;4.05;3.65;;;31.60;51.70;;;;;;4979921;28;20029;-88
2022/08/14 13:45:10;;;;;;;5.38;3.97;;;31.70;52.00;;;;;;4972487;28;20372;-88
2022/08/14 13:47:54;;;;;;;4.30;3.90;;;31.70;52.30;;;;;;4979549;28;20027;-88
2022/08/14 13:50:20;;;;;;;4.63;3.60;;;31.70;52.50;;;;;;4980112;28;20041;-88
2022/08/14 13:52:54;;;;;;;6.60;4.03;;;31.80;52.10;;;;;;4978754;28;20057;-88
2022/08/14 13:55:41;;;;;;;3.95;3.65;;;31.90;51.90;;;;;;4978782;28;20068;-89
2022/08/14 13:58:09;;;;;;;4.13;3.80;;;31.90;51.70;;;;;;4978627;28;20038;-88
2022/08/14 14:00:41;;;;;;;3.90;3.60;;;31.90;51.20;;;;;;4978456;28;20026;-89
2022/08/14 14:03:09;;;;;;;5.10;4.10;;;32.00;51.10;;;;;;4970957;28;20023;-90
2022/08/14 14:05:42;;;;;;;4.07;3.78;;;32.00;51.70;;;;;;4961978;28;20018;-89
2022/08/14 14:08:12;;;;;;;3.88;3.58;;;31.90;52.30;;;;;;4962262;28;20018;-89
2022/08/14 14:10:42;;;;;;;3.40;3.10;;;32.00;52.00;;;;;;4979005;28;20519;-89